Time;durP1;ratioP1;P1;durP2;ratioP2;P2;SDS_P1;SDS_P2;PMS_P1;PMS_P2;Temp;Humidity;BMP_temperature;BMP_pressure;BME280_temperature;BME280_humidity;BME280_pressure;Samples;Min_cycle;Max_cycle;Signal;HPM_P1;HPM_P2
2022/12/09 00:00:36;;;;;;;96.28;32.65;;;;;;;;;;6326278;28;20062;-61
2022/12/09 00:03:49;;;;;;;96.88;34.00;;;;;;;;;;6322166;28;20059;-61
2022/12/09 00:06:49;;;;;;;90.95;31.90;;;;;;;;;;6321025;28;20066;-61
2022/12/09 00:09:50;;;;;;;85.65;30.10;;;;;;;;;;6319312;28;20050;-66
2022/12/09 00:12:54;;;;;;;84.60;28.33;;;;;;;;;;6320888;28;20059;-60
2022/12/09 00:15:55;;;;;;;85.82;30.33;;;;;;;;;;6322681;28;20039;-61
2022/12/09 00:18:56;;;;;;;84.38;31.02;;;;;;;;;;6328987;28;20097;-61
2022/12/09 00:21:57;;;;;;;91.80;31.90;;;;;;;;;;6322905;28;20496;-61
2022/12/09 00:24:57;;;;;;;80.32;28.85;;;;;;;;;;6321668;28;20047;-60
2022/12/09 00:27:58;;;;;;;73.72;26.92;;;;;;;;;;6321943;28;20105;-62
2022/12/09 00:30:59;;;;;;;71.85;25.85;;;;;;;;;;6321789;28;20043;-61
2022/12/09 00:34:03;;;;;;;61.88;22.65;;;;;;;;;;6329215;27;20066;-60
2022/12/09 00:37:04;;;;;;;69.28;24.58;;;;;;;;;;6326103;28;20056;-61
2022/12/09 00:40:05;;;;;;;63.45;22.60;;;;;;;;;;6319169;28;20040;-61
2022/12/09 00:43:06;;;;;;;63.20;23.48;;;;;;;;;;6322392;28;20036;-61
2022/12/09 00:46:08;;;;;;;70.70;23.27;;;;;;;;;;6333736;28;20413;-61
2022/12/09 00:49:09;;;;;;;61.20;21.30;;;;;;;;;;6323769;28;20089;-61
2022/12/09 00:52:10;;;;;;;68.17;22.53;;;;;;;;;;6321008;28;20036;-61
2022/12/09 00:55:10;;;;;;;59.60;21.50;;;;;;;;;;6320987;28;20292;-61
2022/12/09 00:58:12;;;;;;;61.95;22.38;;;;;;;;;;6341252;28;20067;-61
2022/12/09 01:01:12;;;;;;;54.38;20.48;;;;;;;;;;6322676;28;20509;-61
2022/12/09 01:04:13;;;;;;;55.90;19.35;;;;;;;;;;6322477;28;20043;-61
2022/12/09 01:07:13;;;;;;;53.17;19.63;;;;;;;;;;6322834;28;20040;-61
2022/12/09 01:10:15;;;;;;;47.60;16.77;;;;;;;;;;6320108;28;20417;-61
2022/12/09 01:13:16;;;;;;;47.80;18.52;;;;;;;;;;6321094;28;20097;-61
2022/12/09 01:16:23;;;;;;;49.25;17.23;;;;;;;;;;6321637;28;20043;-61
2022/12/09 01:19:23;;;;;;;44.22;16.25;;;;;;;;;;6321529;28;20086;-61
2022/12/09 01:22:24;;;;;;;50.33;17.98;;;;;;;;;;6319678;28;20475;-61
2022/12/09 01:25:25;;;;;;;51.90;17.02;;;;;;;;;;6320237;28;20039;-61
2022/12/09 01:28:25;;;;;;;43.28;16.10;;;;;;;;;;6320590;28;20069;-61
2022/12/09 01:31:26;;;;;;;41.08;14.80;;;;;;;;;;6321765;28;20051;-61
2022/12/09 01:34:27;;;;;;;41.45;15.60;;;;;;;;;;6331735;28;20058;-61
2022/12/09 01:37:27;;;;;;;40.97;16.40;;;;;;;;;;6322273;28;20043;-61
2022/12/09 01:40:28;;;;;;;45.35;17.80;;;;;;;;;;6319848;28;20069;-61
2022/12/09 01:43:29;;;;;;;48.03;17.33;;;;;;;;;;6325361;28;20563;-61
2022/12/09 01:46:29;;;;;;;43.70;17.15;;;;;;;;;;6329378;28;20081;-61
2022/12/09 01:49:37;;;;;;;46.85;16.55;;;;;;;;;;6345980;28;20409;-61
2022/12/09 01:52:38;;;;;;;47.55;16.58;;;;;;;;;;6323803;28;20051;-61
2022/12/09 01:55:39;;;;;;;42.85;18.30;;;;;;;;;;6326357;28;20044;-61
2022/12/09 01:58:41;;;;;;;53.17;22.13;;;;;;;;;;6338736;28;20048;-61
2022/12/09 02:01:44;;;;;;;49.75;20.55;;;;;;;;;;6327361;28;20055;-61
2022/12/09 02:04:47;;;;;;;43.63;16.23;;;;;;;;;;6347830;28;20048;-61
2022/12/09 02:07:48;;;;;;;46.00;18.58;;;;;;;;;;6327750;28;20044;-61
2022/12/09 02:11:26;;;;;;;45.33;16.55;;;;;;;;;;6323713;28;20048;-61
2022/12/09 02:14:32;;;;;;;39.92;16.35;;;;;;;;;;6345461;28;20127;-63
2022/12/09 02:17:46;;;;;;;34.78;13.85;;;;;;;;;;6329431;27;20398;-61
2022/12/09 02:20:55;;;;;;;40.75;15.23;;;;;;;;;;6326742;27;20104;-61
2022/12/09 02:24:14;;;;;;;47.10;15.27;;;;;;;;;;6336534;28;20052;-61
2022/12/09 02:27:28;;;;;;;36.05;14.50;;;;;;;;;;6329646;27;20051;-61
2022/12/09 02:30:37;;;;;;;42.33;14.02;;;;;;;;;;6324307;28;20048;-61
2022/12/09 02:34:01;;;;;;;39.40;14.48;;;;;;;;;;6338556;28;20504;-61
2022/12/09 02:37:24;;;;;;;40.58;14.50;;;;;;;;;;6335687;28;20405;-61
2022/12/09 02:40:31;;;;;;;38.63;13.60;;;;;;;;;;6323416;28;20059;-61
2022/12/09 02:43:36;;;;;;;38.65;13.95;;;;;;;;;;6327364;28;20044;-62
2022/12/09 02:46:39;;;;;;;41.75;14.73;;;;;;;;;;6323199;28;20051;-61
2022/12/09 02:49:41;;;;;;;42.90;14.82;;;;;;;;;;6320888;28;20174;-61
2022/12/09 02:52:44;;;;;;;37.03;14.65;;;;;;;;;;6335973;28;20052;-62
2022/12/09 02:55:47;;;;;;;36.15;13.68;;;;;;;;;;6331608;28;20047;-61
2022/12/09 02:58:48;;;;;;;44.85;16.60;;;;;;;;;;6342464;28;20061;-61
2022/12/09 03:02:24;;;;;;;46.28;17.35;;;;;;;;;;6326796;28;20043;-61
2022/12/09 03:05:38;;;;;;;43.10;15.02;;;;;;;;;;6325980;27;20040;-61
2022/12/09 03:08:50;;;;;;;38.55;14.18;;;;;;;;;;6322858;28;20063;-67
2022/12/09 03:11:51;;;;;;;40.65;16.90;;;;;;;;;;6338064;27;20055;-61
2022/12/09 03:14:54;;;;;;;42.15;14.30;;;;;;;;;;6338611;28;20135;-61
2022/12/09 03:17:57;;;;;;;41.03;17.30;;;;;;;;;;6322533;28;20055;-62
2022/12/09 03:21:00;;;;;;;39.95;15.50;;;;;;;;;;6324843;28;20051;-60
2022/12/09 03:24:01;;;;;;;42.10;14.93;;;;;;;;;;6321984;28;20494;-61
2022/12/09 03:27:05;;;;;;;41.70;16.03;;;;;;;;;;6332859;28;20096;-61
2022/12/09 03:30:08;;;;;;;37.28;14.00;;;;;;;;;;6323510;28;20410;-61
2022/12/09 03:33:13;;;;;;;39.45;13.93;;;;;;;;;;6340603;28;20147;-61
2022/12/09 03:36:15;;;;;;;40.28;14.13;;;;;;;;;;6330135;28;20097;-62
2022/12/09 03:39:20;;;;;;;36.63;14.05;;;;;;;;;;6322833;28;20027;-61
2022/12/09 03:42:27;;;;;;;35.38;13.05;;;;;;;;;;6322500;28;20126;-70
2022/12/09 03:45:28;;;;;;;38.38;14.05;;;;;;;;;;6321051;28;20044;-61
2022/12/09 03:48:29;;;;;;;37.53;14.27;;;;;;;;;;6321324;28;20048;-61
2022/12/09 03:51:41;;;;;;;38.03;15.02;;;;;;;;;;6321658;28;20050;-61
2022/12/09 03:54:44;;;;;;;37.00;14.00;;;;;;;;;;6320586;28;20456;-61
2022/12/09 03:57:47;;;;;;;50.38;15.27;;;;;;;;;;6340545;28;20053;-61
2022/12/09 04:00:48;;;;;;;38.90;14.40;;;;;;;;;;6326179;28;20055;-61
2022/12/09 04:03:52;;;;;;;42.80;15.35;;;;;;;;;;6342713;28;20048;-61
2022/12/09 04:06:53;;;;;;;45.28;17.45;;;;;;;;;;6324392;28;20044;-61
2022/12/09 04:09:53;;;;;;;46.05;17.95;;;;;;;;;;6330535;28;20058;-61
2022/12/09 04:12:54;;;;;;;48.25;18.02;;;;;;;;;;6334876;28;20056;-61
2022/12/09 04:15:54;;;;;;;57.58;23.20;;;;;;;;;;6323112;28;20080;-61
2022/12/09 04:18:55;;;;;;;82.93;30.23;;;;;;;;;;6321189;28;20043;-61
2022/12/09 04:21:56;;;;;;;90.90;31.48;;;;;;;;;;6320558;28;20047;-62
2022/12/09 04:24:56;;;;;;;80.32;28.60;;;;;;;;;;6320041;28;20430;-64
2022/12/09 04:27:57;;;;;;;71.00;26.27;;;;;;;;;;6319833;28;20064;-61
2022/12/09 04:30:58;;;;;;;65.47;25.27;;;;;;;;;;6321200;28;20051;-62
2022/12/09 04:34:00;;;;;;;61.85;23.48;;;;;;;;;;6317769;28;20409;-62
2022/12/09 04:37:00;;;;;;;54.93;20.80;;;;;;;;;;6320923;28;20562;-61
2022/12/09 04:40:01;;;;;;;53.30;21.77;;;;;;;;;;6320618;28;20147;-61
2022/12/09 04:43:02;;;;;;;53.20;20.55;;;;;;;;;;6318575;28;20422;-62
2022/12/09 04:46:05;;;;;;;56.97;21.08;;;;;;;;;;6317498;28;20091;-61
2022/12/09 04:49:06;;;;;;;56.42;22.50;;;;;;;;;;6317870;28;20078;-61
2022/12/09 04:52:07;;;;;;;58.92;22.50;;;;;;;;;;6322179;28;20070;-61
2022/12/09 04:55:08;;;;;;;87.85;33.63;;;;;;;;;;6321176;28;20047;-61
2022/12/09 04:58:09;;;;;;;82.50;29.70;;;;;;;;;;6332165;28;20051;-64
2022/12/09 05:01:12;;;;;;;81.50;32.10;;;;;;;;;;6326759;28;20074;-61
2022/12/09 05:04:13;;;;;;;59.63;22.08;;;;;;;;;;6317791;28;20410;-61
2022/12/09 05:07:14;;;;;;;51.13;18.77;;;;;;;;;;6331926;28;20048;-61
2022/12/09 05:10:15;;;;;;;52.80;20.27;;;;;;;;;;6339878;28;20394;-61
2022/12/09 05:13:16;;;;;;;63.60;23.67;;;;;;;;;;6334863;28;20058;-61
2022/12/09 05:16:19;;;;;;;80.45;30.73;;;;;;;;;;6324107;28;20244;-61
2022/12/09 05:19:19;;;;;;;81.55;31.27;;;;;;;;;;6335066;28;20055;-61
2022/12/09 05:22:20;;;;;;;85.45;31.25;;;;;;;;;;6328308;28;20051;-62
2022/12/09 05:25:21;;;;;;;76.60;29.38;;;;;;;;;;6332461;28;20040;-61
2022/12/09 05:28:24;;;;;;;57.22;25.17;;;;;;;;;;6333487;28;20083;-66
2022/12/09 05:31:24;;;;;;;61.03;24.02;;;;;;;;;;6326191;28;20097;-61
2022/12/09 05:34:25;;;;;;;63.15;21.35;;;;;;;;;;6323631;28;20048;-60
2022/12/09 05:37:26;;;;;;;57.13;22.48;;;;;;;;;;6329159;28;20051;-61
2022/12/09 05:40:26;;;;;;;64.30;22.88;;;;;;;;;;6348086;28;20071;-66
2022/12/09 05:43:27;;;;;;;58.83;24.92;;;;;;;;;;6326777;28;20044;-62
2022/12/09 05:46:28;;;;;;;60.65;23.67;;;;;;;;;;6324939;28;20066;-64
2022/12/09 05:49:29;;;;;;;59.83;23.25;;;;;;;;;;6326473;27;20043;-61
2022/12/09 05:52:29;;;;;;;56.38;22.38;;;;;;;;;;6324869;28;20048;-61
2022/12/09 05:55:30;;;;;;;60.38;23.08;;;;;;;;;;6322586;28;20775;-60
2022/12/09 05:58:30;;;;;;;53.63;20.73;;;;;;;;;;6332484;28;20567;-61
2022/12/09 06:01:31;;;;;;;59.17;21.83;;;;;;;;;;6331441;28;20047;-61
2022/12/09 06:04:32;;;;;;;59.75;22.27;;;;;;;;;;6339919;28;20482;-60
2022/12/09 06:07:33;;;;;;;69.05;22.27;;;;;;;;;;6328817;28;20059;-61
2022/12/09 06:10:38;;;;;;;63.57;22.03;;;;;;;;;;6331639;28;20047;-61
2022/12/09 06:13:38;;;;;;;81.35;27.50;;;;;;;;;;6332227;28;20043;-61
2022/12/09 06:16:40;;;;;;;71.65;25.33;;;;;;;;;;6327662;28;20051;-62
2022/12/09 06:19:41;;;;;;;70.38;23.02;;;;;;;;;;6329017;28;20051;-60
2022/12/09 06:22:41;;;;;;;70.53;20.75;;;;;;;;;;6325784;28;20109;-60
2022/12/09 06:25:43;;;;;;;57.15;21.10;;;;;;;;;;6324626;28;20043;-60
2022/12/09 06:28:44;;;;;;;64.45;21.70;;;;;;;;;;6325982;28;20478;-61
2022/12/09 06:31:45;;;;;;;59.53;20.88;;;;;;;;;;6325046;28;20055;-60
2022/12/09 06:34:46;;;;;;;76.10;23.15;;;;;;;;;;6322135;28;20051;-61
2022/12/09 06:37:51;;;;;;;97.25;32.10;;;;;;;;;;6325190;28;20048;-60
2022/12/09 06:40:51;;;;;;;76.03;25.20;;;;;;;;;;6322570;28;20052;-60
2022/12/09 06:43:52;;;;;;;101.65;36.00;;;;;;;;;;6323483;27;20040;-60
2022/12/09 06:46:53;;;;;;;114.15;38.13;;;;;;;;;;6324130;28;20051;-60
2022/12/09 06:49:56;;;;;;;124.13;41.38;;;;;;;;;;6323378;28;20048;-60
2022/12/09 06:52:57;;;;;;;113.10;39.67;;;;;;;;;;6322984;28;20044;-60
2022/12/09 06:56:05;;;;;;;140.10;45.22;;;;;;;;;;6336503;28;20044;-61
2022/12/09 06:59:08;;;;;;;144.30;47.83;;;;;;;;;;6334340;28;20047;-60
2022/12/09 07:02:09;;;;;;;160.32;51.53;;;;;;;;;;6333915;28;20546;-61
2022/12/09 07:05:10;;;;;;;154.85;52.83;;;;;;;;;;6325461;27;20127;-60
2022/12/09 07:08:10;;;;;;;123.43;41.08;;;;;;;;;;6320581;28;20090;-60
2022/12/09 07:11:11;;;;;;;94.97;32.90;;;;;;;;;;6322443;28;20051;-60
2022/12/09 07:14:13;;;;;;;64.40;20.92;;;;;;;;;;6321128;28;20055;-60
2022/12/09 07:17:18;;;;;;;86.22;27.77;;;;;;;;;;6326528;28;20051;-60
2022/12/09 07:20:19;;;;;;;80.65;26.17;;;;;;;;;;6327586;28;20071;-60
2022/12/09 07:23:20;;;;;;;103.80;37.22;;;;;;;;;;6323156;28;20509;-60
2022/12/09 07:26:20;;;;;;;86.85;28.20;;;;;;;;;;6320729;28;20511;-60
2022/12/09 07:29:21;;;;;;;70.60;24.27;;;;;;;;;;6322297;28;20151;-60
2022/12/09 07:32:21;;;;;;;88.50;28.02;;;;;;;;;;6321401;28;20040;-61
2022/12/09 07:35:22;;;;;;;99.70;32.95;;;;;;;;;;6330349;28;20378;-61
2022/12/09 07:38:24;;;;;;;118.97;38.58;;;;;;;;;;6336255;28;20394;-61
2022/12/09 07:41:25;;;;;;;128.45;40.58;;;;;;;;;;6325753;28;20052;-68
2022/12/09 07:44:28;;;;;;;131.07;41.55;;;;;;;;;;6319904;28;20487;-61
2022/12/09 07:47:29;;;;;;;127.97;42.63;;;;;;;;;;6321051;28;20504;-61
2022/12/09 07:50:29;;;;;;;131.93;44.53;;;;;;;;;;6318377;28;20036;-61
2022/12/09 07:53:33;;;;;;;125.70;43.33;;;;;;;;;;6322148;28;20554;-60
2022/12/09 07:56:33;;;;;;;132.18;42.65;;;;;;;;;;6325345;28;20547;-60
2022/12/09 07:59:34;;;;;;;146.90;49.13;;;;;;;;;;6319421;28;20093;-61
2022/12/09 08:02:34;;;;;;;151.30;51.88;;;;;;;;;;6322815;28;20051;-60
2022/12/09 08:05:35;;;;;;;176.60;60.65;;;;;;;;;;6321556;28;20047;-60
2022/12/09 08:08:35;;;;;;;184.30;62.20;;;;;;;;;;6321288;27;20051;-61
2022/12/09 08:11:36;;;;;;;178.63;64.07;;;;;;;;;;6325226;28;20056;-61
2022/12/09 08:14:36;;;;;;;177.73;63.05;;;;;;;;;;6331148;28;20374;-72
2022/12/09 08:17:37;;;;;;;172.25;61.22;;;;;;;;;;6342853;28;20054;-60
2022/12/09 08:20:39;;;;;;;194.02;61.78;;;;;;;;;;6329570;28;20871;-61
2022/12/09 08:23:40;;;;;;;249.10;75.72;;;;;;;;;;6320817;28;20052;-60
2022/12/09 08:26:41;;;;;;;252.05;73.00;;;;;;;;;;6329085;28;20081;-61
2022/12/09 08:29:41;;;;;;;214.02;67.68;;;;;;;;;;6322457;28;20048;-65
2022/12/09 08:32:42;;;;;;;170.43;57.50;;;;;;;;;;6321714;28;20055;-60
2022/12/09 08:35:43;;;;;;;155.57;53.75;;;;;;;;;;6318449;28;20447;-60
2022/12/09 08:38:44;;;;;;;156.77;54.67;;;;;;;;;;6322359;28;20047;-61
2022/12/09 08:41:45;;;;;;;159.25;55.72;;;;;;;;;;6319084;28;20109;-60
2022/12/09 08:44:45;;;;;;;150.07;53.97;;;;;;;;;;6316911;28;20044;-61
2022/12/09 08:47:46;;;;;;;178.35;61.42;;;;;;;;;;6321555;28;20099;-60
2022/12/09 08:50:47;;;;;;;189.43;60.33;;;;;;;;;;6319708;28;20140;-61
2022/12/09 08:53:47;;;;;;;186.00;63.13;;;;;;;;;;6324773;28;20040;-60
2022/12/09 08:56:53;;;;;;;188.73;66.85;;;;;;;;;;6322634;28;20048;-60
2022/12/09 08:59:54;;;;;;;174.77;61.63;;;;;;;;;;6321971;28;20052;-60
2022/12/09 09:02:54;;;;;;;173.32;63.40;;;;;;;;;;6332882;28;20048;-62
2022/12/09 09:06:03;;;;;;;169.80;58.55;;;;;;;;;;6329561;28;20056;-60
2022/12/09 09:09:05;;;;;;;160.57;55.13;;;;;;;;;;6322254;28;20032;-60
2022/12/09 09:12:07;;;;;;;152.70;55.58;;;;;;;;;;6321479;28;20063;-60
2022/12/09 09:15:08;;;;;;;139.00;49.72;;;;;;;;;;6319929;28;20127;-61
2022/12/09 09:18:08;;;;;;;146.68;50.95;;;;;;;;;;6323324;28;20138;-60
2022/12/09 09:21:10;;;;;;;146.15;53.97;;;;;;;;;;6320226;28;20677;-60
2022/12/09 09:24:13;;;;;;;;;;;;;;;;;;6320108;28;20044;-60
2022/12/09 09:27:13;;;;;;;148.30;47.70;;;;;;;;;;6322289;28;20287;-69
2022/12/09 09:30:14;;;;;;;149.27;47.40;;;;;;;;;;6323309;28;20050;-61
2022/12/09 09:33:16;;;;;;;137.07;49.85;;;;;;;;;;6320665;28;20046;-59
2022/12/09 09:36:21;;;;;;;136.63;50.47;;;;;;;;;;6317552;28;20048;-59
2022/12/09 09:39:22;;;;;;;125.97;45.22;;;;;;;;;;6320298;28;20051;-60
2022/12/09 09:42:32;;;;;;;126.70;45.83;;;;;;;;;;6321204;28;20054;-59
2022/12/09 09:45:33;;;;;;;134.75;49.03;;;;;;;;;;6317640;28;20475;-60
2022/12/09 09:48:34;;;;;;;132.45;48.13;;;;;;;;;;6319693;28;20109;-59
2022/12/09 09:51:36;;;;;;;130.95;47.80;;;;;;;;;;6319413;28;20448;-60
2022/12/09 09:54:36;;;;;;;137.70;47.07;;;;;;;;;;6318583;28;20051;-60
2022/12/09 09:57:56;;;;;;;128.90;45.35;;;;;;;;;;6317298;28;20058;-60
2022/12/09 10:01:12;;;;;;;113.95;42.42;;;;;;;;;;6320435;28;21166;-67
2022/12/09 10:04:31;;;;;;;104.82;39.47;;;;;;;;;;6325254;28;20047;-61
2022/12/09 10:07:41;;;;;;;118.97;44.38;;;;;;;;;;6322223;28;20433;-61
2022/12/09 10:10:57;;;;;;;123.03;45.35;;;;;;;;;;6332089;28;20051;-62
2022/12/09 10:14:21;;;;;;;115.18;41.40;;;;;;;;;;6336647;27;20040;-63
2022/12/09 10:17:42;;;;;;;117.55;45.33;;;;;;;;;;6345254;27;20044;-61
2022/12/09 10:20:44;;;;;;;117.38;41.97;;;;;;;;;;6323779;28;20047;-61
2022/12/09 10:23:46;;;;;;;117.07;43.50;;;;;;;;;;6334942;27;20052;-61
2022/12/09 10:26:57;;;;;;;113.95;42.95;;;;;;;;;;6328803;28;20119;-62
2022/12/09 10:30:03;;;;;;;120.97;43.65;;;;;;;;;;6330024;28;20139;-66
2022/12/09 10:33:04;;;;;;;132.98;48.90;;;;;;;;;;6318357;27;20040;-67
2022/12/09 10:36:14;;;;;;;130.25;47.15;;;;;;;;;;6335600;27;20055;-63
2022/12/09 10:39:19;;;;;;;134.15;46.55;;;;;;;;;;6321278;27;20044;-61
2022/12/09 10:45:55;;;;;;;118.63;45.33;;;;;;;;;;6319823;28;20055;-61
2022/12/09 10:49:00;;;;;;;118.13;41.53;;;;;;;;;;6318799;28;20044;-60
2022/12/09 10:52:03;;;;;;;111.45;40.70;;;;;;;;;;6318709;28;20044;-65
2022/12/09 10:55:04;;;;;;;122.82;42.90;;;;;;;;;;6318721;28;20047;-62
2022/12/09 10:58:18;;;;;;;116.85;43.45;;;;;;;;;;6316724;28;20131;-61
2022/12/09 11:01:19;;;;;;;118.95;42.95;;;;;;;;;;6317227;28;20048;-61
2022/12/09 11:04:27;;;;;;;119.10;43.05;;;;;;;;;;6318739;28;20091;-61
2022/12/09 11:07:29;;;;;;;121.47;46.08;;;;;;;;;;6315546;28;20111;-61
2022/12/09 11:10:31;;;;;;;115.60;43.03;;;;;;;;;;6320991;27;20141;-60
2022/12/09 11:13:39;;;;;;;167.27;64.78;;;;;;;;;;6317947;28;20154;-61
2022/12/09 11:16:40;;;;;;;133.32;46.40;;;;;;;;;;6316963;28;20060;-61
2022/12/09 11:19:42;;;;;;;127.97;46.92;;;;;;;;;;6325741;28;20398;-60
2022/12/09 11:22:44;;;;;;;125.57;46.28;;;;;;;;;;6317703;28;20063;-69
2022/12/09 11:26:00;;;;;;;146.10;55.50;;;;;;;;;;6323809;27;20732;-62
2022/12/09 11:29:16;;;;;;;116.07;44.35;;;;;;;;;;6323536;27;20040;-66
2022/12/09 11:32:17;;;;;;;104.35;40.15;;;;;;;;;;6323862;27;20501;-67
2022/12/09 11:35:23;;;;;;;119.68;44.35;;;;;;;;;;6329267;27;20044;-62
2022/12/09 11:38:33;;;;;;;116.50;42.15;;;;;;;;;;6323617;27;20350;-72
2022/12/09 11:45:01;;;;;;;95.95;37.22;;;;;;;;;;6330276;27;20047;-62
2022/12/09 11:48:16;;;;;;;112.90;39.92;;;;;;;;;;6324078;27;20051;-71
2022/12/09 11:51:32;;;;;;;101.38;37.25;;;;;;;;;;6333636;27;20046;-70
2022/12/09 11:54:44;;;;;;;101.72;38.28;;;;;;;;;;6323941;27;20048;-72
2022/12/09 11:57:50;;;;;;;112.50;40.55;;;;;;;;;;6321603;27;20780;-68
2022/12/09 12:00:59;;;;;;;103.90;40.25;;;;;;;;;;6327865;27;20046;-63
2022/12/09 12:04:04;;;;;;;90.32;35.20;;;;;;;;;;6325879;27;20123;-72
2022/12/09 12:07:13;;;;;;;92.85;36.30;;;;;;;;;;6325842;27;20048;-68
2022/12/09 12:10:23;;;;;;;102.63;40.95;;;;;;;;;;6329323;27;20467;-63
2022/12/09 12:13:44;;;;;;;128.10;52.88;;;;;;;;;;6323141;27;20481;-65
2022/12/09 12:17:12;;;;;;;107.35;40.92;;;;;;;;;;6318318;27;20054;-65
2022/12/09 12:20:13;;;;;;;108.95;42.72;;;;;;;;;;6321103;27;20058;-62
2022/12/09 12:23:34;;;;;;;102.78;37.60;;;;;;;;;;6323612;27;20460;-70
2022/12/09 12:27:06;;;;;;;125.63;47.08;;;;;;;;;;6320853;27;20056;-66
2022/12/09 12:30:16;;;;;;;125.00;47.72;;;;;;;;;;6313856;27;20058;-59
2022/12/09 12:33:35;;;;;;;116.15;38.50;;;;;;;;;;6321403;27;20079;-66
2022/12/09 12:37:14;;;;;;;89.97;33.08;;;;;;;;;;6328229;27;20051;-63
2022/12/09 12:40:35;;;;;;;113.85;40.88;;;;;;;;;;6323547;27;20482;-66
2022/12/09 12:47:52;;;;;;;87.18;35.17;;;;;;;;;;6322827;27;20078;-65
2022/12/09 12:51:11;;;;;;;89.20;35.15;;;;;;;;;;6321605;27;20044;-61
2022/12/09 12:54:14;;;;;;;77.75;31.27;;;;;;;;;;6322886;27;20126;-68
2022/12/09 12:57:31;;;;;;;99.45;34.60;;;;;;;;;;6324585;27;20052;-63
2022/12/09 13:00:50;;;;;;;83.82;33.00;;;;;;;;;;6330070;27;20516;-67
2022/12/09 13:04:15;;;;;;;86.72;33.92;;;;;;;;;;6323568;27;20055;-61
2022/12/09 13:07:22;;;;;;;74.88;30.30;;;;;;;;;;6327278;28;20040;-62
2022/12/09 13:10:39;;;;;;;93.70;37.35;;;;;;;;;;6328022;28;20554;-63
2022/12/09 13:14:03;;;;;;;91.18;34.60;;;;;;;;;;6324534;28;20486;-63
2022/12/09 13:17:11;;;;;;;95.63;36.00;;;;;;;;;;6325840;28;20152;-61
2022/12/09 13:20:24;;;;;;;100.18;35.03;;;;;;;;;;6319469;28;20143;-62
2022/12/09 13:23:53;;;;;;;91.03;32.55;;;;;;;;;;6325396;28;20474;-63
2022/12/09 13:27:12;;;;;;;99.72;35.33;;;;;;;;;;6320429;28;20104;-62
2022/12/09 13:30:30;;;;;;;100.80;38.40;;;;;;;;;;6332787;28;20056;-65
2022/12/09 13:33:46;;;;;;;104.10;37.13;;;;;;;;;;6329014;28;20489;-68
2022/12/09 13:36:47;;;;;;;97.95;33.60;;;;;;;;;;6323283;28;20046;-65
2022/12/09 13:39:48;;;;;;;98.13;33.58;;;;;;;;;;6332944;27;20063;-65
2022/12/09 13:42:55;;;;;;;90.10;32.53;;;;;;;;;;6324440;27;20046;-64
2022/12/09 13:45:58;;;;;;;87.97;30.83;;;;;;;;;;6328265;27;20089;-69
2022/12/09 13:49:08;;;;;;;86.95;33.60;;;;;;;;;;6325863;27;20106;-68
2022/12/09 13:52:09;;;;;;;111.00;40.47;;;;;;;;;;6324704;27;20064;-70
2022/12/09 13:55:26;;;;;;;87.95;33.53;;;;;;;;;;6325157;27;20550;-65
2022/12/09 13:58:39;;;;;;;101.15;37.40;;;;;;;;;;6326459;27;20040;-62
2022/12/09 14:02:11;;;;;;;99.30;31.88;;;;;;;;;;6329402;27;20071;-68
2022/12/09 14:05:19;;;;;;;145.80;42.53;;;;;;;;;;6319892;27;20257;-62
2022/12/09 14:08:24;;;;;;;79.88;28.10;;;;;;;;;;6325152;27;20047;-67
2022/12/09 14:11:47;;;;;;;101.03;33.33;;;;;;;;;;6329225;27;20405;-63
2022/12/09 14:14:51;;;;;;;74.97;27.25;;;;;;;;;;6323141;27;20142;-64
2022/12/09 14:18:01;;;;;;;68.05;26.17;;;;;;;;;;6328733;27;20583;-69
2022/12/09 14:21:16;;;;;;;76.95;26.23;;;;;;;;;;6338005;27;20044;-65
2022/12/09 14:24:20;;;;;;;71.45;27.98;;;;;;;;;;6332354;27;20044;-65
2022/12/09 14:27:22;;;;;;;83.63;29.90;;;;;;;;;;6320449;28;20043;-63
2022/12/09 14:30:29;;;;;;;82.07;29.83;;;;;;;;;;6323386;27;20046;-62
2022/12/09 14:33:36;;;;;;;70.78;26.42;;;;;;;;;;6324235;27;20056;-63
2022/12/09 14:36:36;;;;;;;58.25;22.95;;;;;;;;;;6328529;27;20163;-65
2022/12/09 14:39:52;;;;;;;70.45;25.42;;;;;;;;;;6321649;27;20054;-64
2022/12/09 14:43:06;;;;;;;67.15;25.85;;;;;;;;;;6326870;27;20573;-63
2022/12/09 14:46:17;;;;;;;58.05;21.90;;;;;;;;;;6323916;28;20044;-64
2022/12/09 14:49:22;;;;;;;60.75;23.95;;;;;;;;;;6321925;27;20061;-62
2022/12/09 14:52:30;;;;;;;70.72;26.50;;;;;;;;;;6325675;28;20048;-63
2022/12/09 14:55:37;;;;;;;70.97;26.10;;;;;;;;;;6325190;27;20040;-61
2022/12/09 14:58:38;;;;;;;74.13;27.60;;;;;;;;;;6334950;27;20132;-61
2022/12/09 15:01:57;;;;;;;80.13;28.48;;;;;;;;;;6334957;27;20047;-64
2022/12/09 15:04:59;;;;;;;92.30;31.50;;;;;;;;;;6329981;27;20100;-63
2022/12/09 15:08:00;;;;;;;80.38;29.17;;;;;;;;;;6335809;27;20048;-61
2022/12/09 15:11:07;;;;;;;80.53;27.88;;;;;;;;;;6332636;27;20054;-62
2022/12/09 15:14:26;;;;;;;79.38;30.88;;;;;;;;;;6330482;28;20043;-61
2022/12/09 15:17:35;;;;;;;89.72;31.58;;;;;;;;;;6333235;28;20051;-60
2022/12/09 15:20:38;;;;;;;89.72;33.72;;;;;;;;;;6334419;27;20048;-72
2022/12/09 15:23:42;;;;;;;92.20;35.50;;;;;;;;;;6333174;27;20059;-60
2022/12/09 15:26:55;;;;;;;98.28;35.40;;;;;;;;;;6333042;28;20169;-67
2022/12/09 15:29:55;;;;;;;104.30;37.80;;;;;;;;;;6335377;27;20050;-68
2022/12/09 15:32:59;;;;;;;99.95;37.22;;;;;;;;;;6332545;27;20048;-68
2022/12/09 15:36:03;;;;;;;86.90;35.38;;;;;;;;;;6329930;28;20466;-64
2022/12/09 15:39:11;;;;;;;88.57;33.33;;;;;;;;;;6333532;27;20054;-62
2022/12/09 15:42:20;;;;;;;86.40;33.17;;;;;;;;;;6334104;27;20055;-71
2022/12/09 15:45:25;;;;;;;93.43;33.42;;;;;;;;;;6330535;27;20108;-69
2022/12/09 15:48:36;;;;;;;87.20;32.67;;;;;;;;;;6329843;28;20052;-72
2022/12/09 15:51:38;;;;;;;83.75;31.35;;;;;;;;;;6333207;27;20062;-57
2022/12/09 15:54:42;;;;;;;80.20;26.98;;;;;;;;;;6329964;27;20063;-61
2022/12/09 15:57:44;;;;;;;77.68;29.75;;;;;;;;;;6332578;28;21594;-60
2022/12/09 16:00:47;;;;;;;109.38;36.65;;;;;;;;;;6329587;28;20461;-61
2022/12/09 16:03:50;;;;;;;81.28;28.95;;;;;;;;;;6332107;27;20056;-61
2022/12/09 16:06:50;;;;;;;72.30;26.20;;;;;;;;;;6332071;28;21536;-62
2022/12/09 16:10:15;;;;;;;76.88;27.38;;;;;;;;;;6332707;27;20071;-61
2022/12/09 16:13:18;;;;;;;85.68;29.63;;;;;;;;;;6331233;28;20042;-60
2022/12/09 16:16:32;;;;;;;89.60;30.10;;;;;;;;;;6333463;28;20067;-60
2022/12/09 16:19:35;;;;;;;76.68;29.10;;;;;;;;;;6330499;28;20088;-61
2022/12/09 16:22:36;;;;;;;83.60;30.23;;;;;;;;;;6331027;27;20055;-68
2022/12/09 16:25:46;;;;;;;78.80;29.40;;;;;;;;;;6329813;27;20047;-60
2022/12/09 16:28:59;;;;;;;88.10;31.58;;;;;;;;;;6332949;27;20051;-60
2022/12/09 16:32:18;;;;;;;81.03;30.27;;;;;;;;;;6330046;28;20031;-61
2022/12/09 16:35:21;;;;;;;87.53;31.27;;;;;;;;;;6331436;27;20465;-61
2022/12/09 16:38:23;;;;;;;104.38;36.50;;;;;;;;;;6334033;28;20447;-62
2022/12/09 16:41:46;;;;;;;110.15;38.72;;;;;;;;;;6331520;28;20055;-60
2022/12/09 16:44:47;;;;;;;109.85;34.50;;;;;;;;;;6329271;27;20066;-60
2022/12/09 16:47:53;;;;;;;112.20;36.28;;;;;;;;;;6334540;27;20056;-60
2022/12/09 16:51:11;;;;;;;104.45;35.85;;;;;;;;;;6333638;27;20550;-59
2022/12/09 16:54:14;;;;;;;114.15;34.97;;;;;;;;;;6329015;28;20044;-65
2022/12/09 16:57:17;;;;;;;108.97;35.25;;;;;;;;;;6333356;27;20055;-58
2022/12/09 17:00:19;;;;;;;116.53;39.50;;;;;;;;;;6331983;27;20055;-58
2022/12/09 17:03:36;;;;;;;108.45;36.97;;;;;;;;;;6329006;28;20058;-59
2022/12/09 17:06:38;;;;;;;124.97;40.72;;;;;;;;;;6327793;27;20051;-59
2022/12/09 17:09:38;;;;;;;116.93;37.33;;;;;;;;;;6331606;28;20055;-60
2022/12/09 17:12:39;;;;;;;110.72;35.80;;;;;;;;;;6331263;28;20044;-59
2022/12/09 17:15:40;;;;;;;111.50;35.33;;;;;;;;;;6328190;28;20421;-62
2022/12/09 17:18:41;;;;;;;111.60;35.50;;;;;;;;;;6328591;28;20805;-61
2022/12/09 17:21:42;;;;;;;105.72;35.63;;;;;;;;;;6331736;28;20093;-68
2022/12/09 17:24:43;;;;;;;116.47;34.50;;;;;;;;;;6326223;28;20044;-67
2022/12/09 17:27:43;;;;;;;96.68;33.70;;;;;;;;;;6323778;28;20051;-72
2022/12/09 17:30:44;;;;;;;100.97;34.60;;;;;;;;;;6322620;28;20490;-66
2022/12/09 17:33:45;;;;;;;103.60;34.45;;;;;;;;;;6334541;28;20064;-61
2022/12/09 17:36:46;;;;;;;105.38;34.90;;;;;;;;;;6328452;28;20163;-65
2022/12/09 17:39:48;;;;;;;103.15;35.65;;;;;;;;;;6320281;28;20094;-60
2022/12/09 17:42:49;;;;;;;114.88;35.75;;;;;;;;;;6316516;28;20577;-72
2022/12/09 17:45:49;;;;;;;123.28;37.95;;;;;;;;;;6325568;28;20073;-78
2022/12/09 17:48:50;;;;;;;139.65;43.97;;;;;;;;;;6345906;28;20059;-63
2022/12/09 17:51:51;;;;;;;129.25;42.05;;;;;;;;;;6332339;27;20105;-60
2022/12/09 17:54:51;;;;;;;127.13;41.15;;;;;;;;;;6318384;28;20047;-60
2022/12/09 17:57:52;;;;;;;131.52;42.55;;;;;;;;;;6344675;27;20055;-72
2022/12/09 18:00:53;;;;;;;133.35;44.10;;;;;;;;;;6319493;28;20055;-62